sensor_id;sensor_type;location;lat;lon;timestamp;P1;durP1;ratioP1;P2;durP2;ratioP2
8887;SDS011;4480;52.370;9.748;2022-07-11T00:02:08;1.63;;;1.53;;
8887;SDS011;4480;52.370;9.748;2022-07-11T00:04:36;3.03;;;1.50;;
8887;SDS011;4480;52.370;9.748;2022-07-11T00:07:04;2.17;;;1.97;;
8887;SDS011;4480;52.370;9.748;2022-07-11T00:09:32;6.20;;;3.40;;
8887;SDS011;4480;52.370;9.748;2022-07-11T00:11:59;1.67;;;1.57;;
8887;SDS011;4480;52.370;9.748;2022-07-11T00:14:27;2.40;;;1.93;;
8887;SDS011;4480;52.370;9.748;2022-07-11T00:16:54;2.17;;;1.97;;
8887;SDS011;4480;52.370;9.748;2022-07-11T00:19:23;3.73;;;1.80;;
8887;SDS011;4480;52.370;9.748;2022-07-11T00:21:51;1.90;;;1.60;;
8887;SDS011;4480;52.370;9.748;2022-07-11T00:24:19;4.43;;;1.70;;
8887;SDS011;4480;52.370;9.748;2022-07-11T00:26:47;3.63;;;2.20;;
8887;SDS011;4480;52.370;9.748;2022-07-11T00:29:14;3.70;;;2.20;;
8887;SDS011;4480;52.370;9.748;2022-07-11T00:31:42;2.43;;;2.23;;
8887;SDS011;4480;52.370;9.748;2022-07-11T00:34:10;2.50;;;2.17;;
8887;SDS011;4480;52.370;9.748;2022-07-11T00:36:39;2.53;;;2.33;;
8887;SDS011;4480;52.370;9.748;2022-07-11T00:39:06;3.67;;;2.10;;
8887;SDS011;4480;52.370;9.748;2022-07-11T00:41:34;3.63;;;2.27;;
8887;SDS011;4480;52.370;9.748;2022-07-11T00:44:01;3.43;;;2.17;;
8887;SDS011;4480;52.370;9.748;2022-07-11T00:46:28;2.60;;;1.93;;
8887;SDS011;4480;52.370;9.748;2022-07-11T00:48:56;3.60;;;2.20;;
8887;SDS011;4480;52.370;9.748;2022-07-11T00:51:24;2.40;;;2.07;;
8887;SDS011;4480;52.370;9.748;2022-07-11T00:53:54;2.13;;;1.90;;
8887;SDS011;4480;52.370;9.748;2022-07-11T00:56:23;2.80;;;2.03;;
8887;SDS011;4480;52.370;9.748;2022-07-11T00:58:55;2.37;;;2.17;;
8887;SDS011;4480;52.370;9.748;2022-07-11T01:01:24;2.30;;;2.10;;
8887;SDS011;4480;52.370;9.748;2022-07-11T01:03:51;2.50;;;2.23;;
8887;SDS011;4480;52.370;9.748;2022-07-11T01:06:19;3.33;;;2.27;;
8887;SDS011;4480;52.370;9.748;2022-07-11T01:08:46;4.53;;;2.43;;
8887;SDS011;4480;52.370;9.748;2022-07-11T01:11:15;2.33;;;2.13;;
8887;SDS011;4480;52.370;9.748;2022-07-11T01:13:42;2.93;;;2.50;;
8887;SDS011;4480;52.370;9.748;2022-07-11T01:16:11;2.73;;;2.40;;
8887;SDS011;4480;52.370;9.748;2022-07-11T01:18:40;2.33;;;2.13;;
8887;SDS011;4480;52.370;9.748;2022-07-11T01:23:58;4.03;;;2.67;;
8887;SDS011;4480;52.370;9.748;2022-07-11T01:26:26;4.77;;;2.23;;
8887;SDS011;4480;52.370;9.748;2022-07-11T01:28:54;3.20;;;2.67;;
8887;SDS011;4480;52.370;9.748;2022-07-11T01:31:30;3.10;;;2.70;;
8887;SDS011;4480;52.370;9.748;2022-07-11T01:33:58;4.00;;;2.80;;
8887;SDS011;4480;52.370;9.748;2022-07-11T01:36:25;4.20;;;2.33;;
8887;SDS011;4480;52.370;9.748;2022-07-11T01:38:52;5.27;;;2.90;;
8887;SDS011;4480;52.370;9.748;2022-07-11T01:41:21;5.00;;;3.20;;
8887;SDS011;4480;52.370;9.748;2022-07-11T01:43:48;3.00;;;2.60;;
8887;SDS011;4480;52.370;9.748;2022-07-11T01:46:16;4.00;;;2.60;;
8887;SDS011;4480;52.370;9.748;2022-07-11T01:48:43;2.97;;;2.67;;
8887;SDS011;4480;52.370;9.748;2022-07-11T01:51:11;4.23;;;2.77;;
8887;SDS011;4480;52.370;9.748;2022-07-11T01:53:38;6.63;;;2.43;;
8887;SDS011;4480;52.370;9.748;2022-07-11T01:56:06;9.87;;;3.40;;
8887;SDS011;4480;52.370;9.748;2022-07-11T01:58:34;4.00;;;2.67;;
8887;SDS011;4480;52.370;9.748;2022-07-11T02:01:02;3.37;;;3.07;;
8887;SDS011;4480;52.370;9.748;2022-07-11T02:03:29;3.40;;;2.70;;
8887;SDS011;4480;52.370;9.748;2022-07-11T02:05:56;4.60;;;3.03;;
8887;SDS011;4480;52.370;9.748;2022-07-11T02:08:23;4.70;;;3.30;;
8887;SDS011;4480;52.370;9.748;2022-07-11T02:10:51;4.30;;;2.83;;
8887;SDS011;4480;52.370;9.748;2022-07-11T02:13:19;4.30;;;3.40;;
8887;SDS011;4480;52.370;9.748;2022-07-11T02:15:50;6.33;;;2.83;;
8887;SDS011;4480;52.370;9.748;2022-07-11T02:18:18;5.60;;;2.53;;
8887;SDS011;4480;52.370;9.748;2022-07-11T02:20:46;8.07;;;3.13;;
8887;SDS011;4480;52.370;9.748;2022-07-11T02:23:14;4.03;;;2.93;;
8887;SDS011;4480;52.370;9.748;2022-07-11T02:25:42;3.77;;;3.37;;
8887;SDS011;4480;52.370;9.748;2022-07-11T02:28:10;3.77;;;2.93;;
8887;SDS011;4480;52.370;9.748;2022-07-11T02:30:38;4.53;;;2.97;;
8887;SDS011;4480;52.370;9.748;2022-07-11T02:33:07;5.77;;;3.73;;
8887;SDS011;4480;52.370;9.748;2022-07-11T02:35:38;3.63;;;2.90;;
8887;SDS011;4480;52.370;9.748;2022-07-11T02:38:06;4.33;;;3.17;;
8887;SDS011;4480;52.370;9.748;2022-07-11T02:40:33;5.47;;;3.37;;
8887;SDS011;4480;52.370;9.748;2022-07-11T02:43:01;5.00;;;3.70;;
8887;SDS011;4480;52.370;9.748;2022-07-11T02:45:28;5.23;;;3.23;;
8887;SDS011;4480;52.370;9.748;2022-07-11T02:47:55;4.27;;;3.50;;
8887;SDS011;4480;52.370;9.748;2022-07-11T02:50:24;4.30;;;3.30;;
8887;SDS011;4480;52.370;9.748;2022-07-11T02:52:51;8.87;;;3.57;;
8887;SDS011;4480;52.370;9.748;2022-07-11T02:55:19;5.30;;;3.27;;
8887;SDS011;4480;52.370;9.748;2022-07-11T02:57:46;5.10;;;3.53;;
8887;SDS011;4480;52.370;9.748;2022-07-11T03:00:14;4.90;;;3.90;;
8887;SDS011;4480;52.370;9.748;2022-07-11T03:02:42;4.47;;;4.07;;
8887;SDS011;4480;52.370;9.748;2022-07-11T03:05:11;4.00;;;3.60;;
8887;SDS011;4480;52.370;9.748;2022-07-11T03:07:40;4.30;;;3.70;;
8887;SDS011;4480;52.370;9.748;2022-07-11T03:10:08;5.37;;;3.83;;
8887;SDS011;4480;52.370;9.748;2022-07-11T03:12:35;7.53;;;4.13;;
8887;SDS011;4480;52.370;9.748;2022-07-11T03:15:04;6.70;;;3.60;;
8887;SDS011;4480;52.370;9.748;2022-07-11T03:17:32;4.77;;;3.90;;
8887;SDS011;4480;52.370;9.748;2022-07-11T03:19:59;5.43;;;3.50;;
8887;SDS011;4480;52.370;9.748;2022-07-11T03:22:27;5.47;;;3.40;;
8887;SDS011;4480;52.370;9.748;2022-07-11T03:24:55;7.43;;;3.70;;
8887;SDS011;4480;52.370;9.748;2022-07-11T03:27:25;5.03;;;3.60;;
8887;SDS011;4480;52.370;9.748;2022-07-11T03:29:52;5.43;;;4.70;;
8887;SDS011;4480;52.370;9.748;2022-07-11T03:32:19;10.77;;;4.87;;
8887;SDS011;4480;52.370;9.748;2022-07-11T03:34:47;4.13;;;3.40;;
8887;SDS011;4480;52.370;9.748;2022-07-11T03:37:28;4.30;;;3.77;;
8887;SDS011;4480;52.370;9.748;2022-07-11T03:39:57;6.93;;;3.73;;
8887;SDS011;4480;52.370;9.748;2022-07-11T03:42:24;9.20;;;4.20;;
8887;SDS011;4480;52.370;9.748;2022-07-11T03:44:51;6.00;;;4.30;;
8887;SDS011;4480;52.370;9.748;2022-07-11T03:47:19;5.03;;;4.50;;
8887;SDS011;4480;52.370;9.748;2022-07-11T03:49:46;5.97;;;4.30;;
8887;SDS011;4480;52.370;9.748;2022-07-11T03:52:14;5.70;;;3.90;;
8887;SDS011;4480;52.370;9.748;2022-07-11T03:54:41;7.60;;;4.50;;
8887;SDS011;4480;52.370;9.748;2022-07-11T03:57:11;4.20;;;3.80;;
8887;SDS011;4480;52.370;9.748;2022-07-11T03:59:39;9.13;;;4.63;;
8887;SDS011;4480;52.370;9.748;2022-07-11T04:02:06;16.03;;;5.27;;
8887;SDS011;4480;52.370;9.748;2022-07-11T04:04:33;7.87;;;4.50;;
8887;SDS011;4480;52.370;9.748;2022-07-11T04:09:58;11.43;;;5.40;;
8887;SDS011;4480;52.370;9.748;2022-07-11T04:12:26;5.73;;;4.77;;
8887;SDS011;4480;52.370;9.748;2022-07-11T04:14:53;8.20;;;4.97;;
8887;SDS011;4480;52.370;9.748;2022-07-11T04:17:20;7.20;;;4.87;;
8887;SDS011;4480;52.370;9.748;2022-07-11T04:19:48;5.70;;;4.90;;
8887;SDS011;4480;52.370;9.748;2022-07-11T04:22:15;5.83;;;4.60;;
8887;SDS011;4480;52.370;9.748;2022-07-11T04:24:43;5.90;;;4.70;;
8887;SDS011;4480;52.370;9.748;2022-07-11T04:27:11;5.20;;;4.57;;
8887;SDS011;4480;52.370;9.748;2022-07-11T04:29:38;5.83;;;5.23;;
8887;SDS011;4480;52.370;9.748;2022-07-11T04:32:06;6.03;;;5.17;;
8887;SDS011;4480;52.370;9.748;2022-07-11T04:34:34;9.20;;;6.20;;
8887;SDS011;4480;52.370;9.748;2022-07-11T04:37:01;7.20;;;5.37;;
8887;SDS011;4480;52.370;9.748;2022-07-11T04:39:30;7.87;;;5.27;;
8887;SDS011;4480;52.370;9.748;2022-07-11T04:41:57;10.80;;;5.40;;
8887;SDS011;4480;52.370;9.748;2022-07-11T04:44:27;6.13;;;5.40;;
8887;SDS011;4480;52.370;9.748;2022-07-11T04:46:54;6.30;;;5.30;;
8887;SDS011;4480;52.370;9.748;2022-07-11T04:49:22;6.57;;;4.90;;
8887;SDS011;4480;52.370;9.748;2022-07-11T04:51:49;7.83;;;6.03;;
8887;SDS011;4480;52.370;9.748;2022-07-11T04:54:16;7.33;;;5.30;;
8887;SDS011;4480;52.370;9.748;2022-07-11T04:56:43;7.23;;;6.03;;
8887;SDS011;4480;52.370;9.748;2022-07-11T04:59:11;10.03;;;5.37;;
8887;SDS011;4480;52.370;9.748;2022-07-11T05:01:39;9.10;;;5.33;;
8887;SDS011;4480;52.370;9.748;2022-07-11T05:04:07;5.83;;;5.33;;
8887;SDS011;4480;52.370;9.748;2022-07-11T05:06:34;4.97;;;4.30;;
8887;SDS011;4480;52.370;9.748;2022-07-11T05:09:02;6.00;;;5.07;;
8887;SDS011;4480;52.370;9.748;2022-07-11T05:11:33;7.70;;;5.23;;
8887;SDS011;4480;52.370;9.748;2022-07-11T05:14:00;8.17;;;3.93;;
8887;SDS011;4480;52.370;9.748;2022-07-11T05:16:28;8.13;;;4.40;;
8887;SDS011;4480;52.370;9.748;2022-07-11T05:18:56;5.13;;;3.87;;
8887;SDS011;4480;52.370;9.748;2022-07-11T05:21:24;4.37;;;3.37;;
8887;SDS011;4480;52.370;9.748;2022-07-11T05:23:51;5.10;;;3.40;;
8887;SDS011;4480;52.370;9.748;2022-07-11T05:26:18;4.30;;;3.40;;
8887;SDS011;4480;52.370;9.748;2022-07-11T05:28:45;9.73;;;3.90;;
8887;SDS011;4480;52.370;9.748;2022-07-11T05:31:13;3.57;;;2.93;;
8887;SDS011;4480;52.370;9.748;2022-07-11T05:33:40;4.60;;;3.93;;
8887;SDS011;4480;52.370;9.748;2022-07-11T05:36:08;4.10;;;3.70;;
8887;SDS011;4480;52.370;9.748;2022-07-11T05:38:36;5.87;;;3.70;;
8887;SDS011;4480;52.370;9.748;2022-07-11T05:41:03;5.23;;;3.50;;
8887;SDS011;4480;52.370;9.748;2022-07-11T05:43:31;5.10;;;4.20;;
8887;SDS011;4480;52.370;9.748;2022-07-11T05:45:58;5.27;;;3.90;;
8887;SDS011;4480;52.370;9.748;2022-07-11T05:48:25;4.20;;;3.60;;
8887;SDS011;4480;52.370;9.748;2022-07-11T05:50:52;3.70;;;3.40;;
8887;SDS011;4480;52.370;9.748;2022-07-11T05:53:21;4.63;;;4.07;;
8887;SDS011;4480;52.370;9.748;2022-07-11T05:55:48;4.37;;;3.47;;
8887;SDS011;4480;52.370;9.748;2022-07-11T05:58:16;4.90;;;2.83;;
8887;SDS011;4480;52.370;9.748;2022-07-11T06:00:43;3.90;;;3.10;;
8887;SDS011;4480;52.370;9.748;2022-07-11T06:03:10;4.97;;;2.63;;
8887;SDS011;4480;52.370;9.748;2022-07-11T06:05:37;7.40;;;3.50;;
8887;SDS011;4480;52.370;9.748;2022-07-11T06:08:05;4.97;;;2.93;;
8887;SDS011;4480;52.370;9.748;2022-07-11T06:10:51;4.90;;;2.90;;
8887;SDS011;4480;52.370;9.748;2022-07-11T06:13:18;4.03;;;2.57;;
8887;SDS011;4480;52.370;9.748;2022-07-11T06:15:45;2.80;;;2.00;;
8887;SDS011;4480;52.370;9.748;2022-07-11T06:18:13;3.10;;;2.20;;
8887;SDS011;4480;52.370;9.748;2022-07-11T06:20:40;3.63;;;2.33;;
8887;SDS011;4480;52.370;9.748;2022-07-11T06:23:07;3.10;;;1.70;;
8887;SDS011;4480;52.370;9.748;2022-07-11T06:25:35;2.43;;;1.80;;
8887;SDS011;4480;52.370;9.748;2022-07-11T06:28:04;2.10;;;1.70;;
8887;SDS011;4480;52.370;9.748;2022-07-11T06:30:32;1.57;;;1.40;;
8887;SDS011;4480;52.370;9.748;2022-07-11T06:33:01;3.33;;;1.50;;
8887;SDS011;4480;52.370;9.748;2022-07-11T06:35:29;3.50;;;1.70;;
8887;SDS011;4480;52.370;9.748;2022-07-11T06:37:56;5.00;;;2.03;;
8887;SDS011;4480;52.370;9.748;2022-07-11T06:40:24;3.53;;;2.00;;
8887;SDS011;4480;52.370;9.748;2022-07-11T06:42:51;5.90;;;1.80;;
8887;SDS011;4480;52.370;9.748;2022-07-11T06:45:20;2.93;;;1.77;;
8887;SDS011;4480;52.370;9.748;2022-07-11T06:47:48;2.77;;;1.20;;
8887;SDS011;4480;52.370;9.748;2022-07-11T06:50:16;3.27;;;1.83;;
8887;SDS011;4480;52.370;9.748;2022-07-11T06:52:43;4.67;;;1.60;;
8887;SDS011;4480;52.370;9.748;2022-07-11T06:55:11;2.80;;;1.50;;
8887;SDS011;4480;52.370;9.748;2022-07-11T06:57:38;1.57;;;1.40;;
8887;SDS011;4480;52.370;9.748;2022-07-11T07:00:06;3.10;;;2.33;;
8887;SDS011;4480;52.370;9.748;2022-07-11T07:02:36;2.30;;;1.50;;
8887;SDS011;4480;52.370;9.748;2022-07-11T07:05:03;3.53;;;2.03;;
8887;SDS011;4480;52.370;9.748;2022-07-11T07:07:31;2.90;;;1.60;;
8887;SDS011;4480;52.370;9.748;2022-07-11T07:09:59;3.47;;;1.60;;
8887;SDS011;4480;52.370;9.748;2022-07-11T07:12:26;7.40;;;1.50;;
8887;SDS011;4480;52.370;9.748;2022-07-11T07:14:53;3.07;;;1.70;;
8887;SDS011;4480;52.370;9.748;2022-07-11T07:17:20;2.37;;;1.87;;
8887;SDS011;4480;52.370;9.748;2022-07-11T07:19:49;1.90;;;1.70;;
8887;SDS011;4480;52.370;9.748;2022-07-11T07:22:16;2.53;;;2.10;;
8887;SDS011;4480;52.370;9.748;2022-07-11T07:24:44;3.00;;;1.80;;
8887;SDS011;4480;52.370;9.748;2022-07-11T07:27:11;2.70;;;1.53;;
8887;SDS011;4480;52.370;9.748;2022-07-11T07:29:39;1.63;;;1.53;;
8887;SDS011;4480;52.370;9.748;2022-07-11T07:32:07;2.37;;;1.70;;
8887;SDS011;4480;52.370;9.748;2022-07-11T07:34:34;3.57;;;1.77;;
8887;SDS011;4480;52.370;9.748;2022-07-11T07:37:03;3.00;;;1.70;;
8887;SDS011;4480;52.370;9.748;2022-07-11T07:39:30;2.60;;;1.60;;
8887;SDS011;4480;52.370;9.748;2022-07-11T07:41:57;1.60;;;1.30;;
8887;SDS011;4480;52.370;9.748;2022-07-11T07:44:24;3.13;;;1.20;;
8887;SDS011;4480;52.370;9.748;2022-07-11T07:46:52;1.50;;;1.23;;
8887;SDS011;4480;52.370;9.748;2022-07-11T07:49:19;4.77;;;1.17;;
8887;SDS011;4480;52.370;9.748;2022-07-11T07:51:46;1.20;;;0.97;;
8887;SDS011;4480;52.370;9.748;2022-07-11T07:54:15;2.40;;;1.47;;
8887;SDS011;4480;52.370;9.748;2022-07-11T07:56:43;1.50;;;1.00;;
8887;SDS011;4480;52.370;9.748;2022-07-11T07:59:11;3.67;;;1.40;;
8887;SDS011;4480;52.370;9.748;2022-07-11T08:01:38;1.23;;;1.07;;
8887;SDS011;4480;52.370;9.748;2022-07-11T08:04:07;2.20;;;1.40;;
8887;SDS011;4480;52.370;9.748;2022-07-11T08:06:36;3.40;;;1.27;;
8887;SDS011;4480;52.370;9.748;2022-07-11T08:09:04;1.70;;;1.30;;
8887;SDS011;4480;52.370;9.748;2022-07-11T08:11:33;4.40;;;1.70;;
8887;SDS011;4480;52.370;9.748;2022-07-11T08:14:02;2.40;;;1.47;;
8887;SDS011;4480;52.370;9.748;2022-07-11T08:16:33;1.60;;;1.20;;
8887;SDS011;4480;52.370;9.748;2022-07-11T08:19:01;1.40;;;1.17;;
8887;SDS011;4480;52.370;9.748;2022-07-11T08:21:30;2.30;;;1.33;;
8887;SDS011;4480;52.370;9.748;2022-07-11T08:23:57;3.10;;;1.20;;
8887;SDS011;4480;52.370;9.748;2022-07-11T08:26:25;1.43;;;1.33;;
8887;SDS011;4480;52.370;9.748;2022-07-11T08:28:54;2.33;;;1.10;;
8887;SDS011;4480;52.370;9.748;2022-07-11T08:31:22;1.80;;;1.20;;
8887;SDS011;4480;52.370;9.748;2022-07-11T08:33:49;1.73;;;1.20;;
8887;SDS011;4480;52.370;9.748;2022-07-11T08:36:17;3.27;;;1.67;;
8887;SDS011;4480;52.370;9.748;2022-07-11T08:38:45;3.60;;;1.30;;
8887;SDS011;4480;52.370;9.748;2022-07-11T08:41:13;2.20;;;1.40;;
8887;SDS011;4480;52.370;9.748;2022-07-11T08:43:41;2.97;;;1.00;;
8887;SDS011;4480;52.370;9.748;2022-07-11T08:46:11;2.47;;;1.30;;
8887;SDS011;4480;52.370;9.748;2022-07-11T08:48:39;1.30;;;1.20;;
8887;SDS011;4480;52.370;9.748;2022-07-11T08:51:08;1.47;;;0.97;;
8887;SDS011;4480;52.370;9.748;2022-07-11T08:53:38;3.60;;;1.23;;
8887;SDS011;4480;52.370;9.748;2022-07-11T08:56:09;1.87;;;1.17;;
8887;SDS011;4480;52.370;9.748;2022-07-11T08:58:41;2.20;;;1.27;;
8887;SDS011;4480;52.370;9.748;2022-07-11T09:01:13;2.00;;;1.17;;
8887;SDS011;4480;52.370;9.748;2022-07-11T09:03:42;1.37;;;0.93;;
8887;SDS011;4480;52.370;9.748;2022-07-11T09:06:10;2.80;;;0.97;;
8887;SDS011;4480;52.370;9.748;2022-07-11T09:08:38;0.80;;;0.70;;
8887;SDS011;4480;52.370;9.748;2022-07-11T09:11:06;2.03;;;1.37;;
8887;SDS011;4480;52.370;9.748;2022-07-11T09:13:33;1.27;;;0.80;;
8887;SDS011;4480;52.370;9.748;2022-07-11T09:16:02;1.50;;;0.90;;
8887;SDS011;4480;52.370;9.748;2022-07-11T09:18:32;1.50;;;1.03;;
8887;SDS011;4480;52.370;9.748;2022-07-11T09:21:01;1.10;;;0.80;;
8887;SDS011;4480;52.370;9.748;2022-07-11T09:23:47;1.13;;;0.67;;
8887;SDS011;4480;52.370;9.748;2022-07-11T09:26:33;1.13;;;0.80;;
8887;SDS011;4480;52.370;9.748;2022-07-11T09:29:05;1.93;;;0.80;;
8887;SDS011;4480;52.370;9.748;2022-07-11T09:31:34;1.57;;;0.70;;
8887;SDS011;4480;52.370;9.748;2022-07-11T09:34:04;1.70;;;0.97;;
8887;SDS011;4480;52.370;9.748;2022-07-11T09:36:34;1.33;;;0.83;;
8887;SDS011;4480;52.370;9.748;2022-07-11T09:39:03;1.53;;;0.83;;
8887;SDS011;4480;52.370;9.748;2022-07-11T09:41:31;2.17;;;0.70;;
8887;SDS011;4480;52.370;9.748;2022-07-11T09:44:06;1.30;;;0.90;;
8887;SDS011;4480;52.370;9.748;2022-07-11T09:46:34;2.97;;;0.83;;
8887;SDS011;4480;52.370;9.748;2022-07-11T09:49:02;3.90;;;0.90;;
8887;SDS011;4480;52.370;9.748;2022-07-11T09:51:32;1.17;;;0.93;;
8887;SDS011;4480;52.370;9.748;2022-07-11T09:54:00;1.10;;;0.80;;
8887;SDS011;4480;52.370;9.748;2022-07-11T09:56:34;1.43;;;0.90;;
8887;SDS011;4480;52.370;9.748;2022-07-11T09:59:04;1.77;;;0.70;;
8887;SDS011;4480;52.370;9.748;2022-07-11T10:01:32;1.10;;;0.70;;
8887;SDS011;4480;52.370;9.748;2022-07-11T10:04:00;1.10;;;0.60;;
8887;SDS011;4480;52.370;9.748;2022-07-11T10:06:28;2.40;;;0.80;;
8887;SDS011;4480;52.370;9.748;2022-07-11T10:08:55;2.40;;;1.00;;
8887;SDS011;4480;52.370;9.748;2022-07-11T10:11:23;4.20;;;0.83;;
8887;SDS011;4480;52.370;9.748;2022-07-11T10:13:50;1.20;;;0.50;;
8887;SDS011;4480;52.370;9.748;2022-07-11T10:16:22;1.30;;;0.93;;
8887;SDS011;4480;52.370;9.748;2022-07-11T10:19:16;4.53;;;0.90;;
8887;SDS011;4480;52.370;9.748;2022-07-11T10:21:54;1.30;;;0.77;;
8887;SDS011;4480;52.370;9.748;2022-07-11T10:24:32;1.17;;;0.80;;
8887;SDS011;4480;52.370;9.748;2022-07-11T10:29:45;1.00;;;0.70;;
8887;SDS011;4480;52.370;9.748;2022-07-11T10:32:16;1.00;;;0.70;;
8887;SDS011;4480;52.370;9.748;2022-07-11T10:34:44;1.90;;;1.10;;
8887;SDS011;4480;52.370;9.748;2022-07-11T10:37:14;1.33;;;1.10;;
8887;SDS011;4480;52.370;9.748;2022-07-11T10:39:57;1.83;;;1.20;;
8887;SDS011;4480;52.370;9.748;2022-07-11T10:42:37;1.80;;;1.07;;
8887;SDS011;4480;52.370;9.748;2022-07-11T10:45:07;1.87;;;1.30;;
8887;SDS011;4480;52.370;9.748;2022-07-11T10:47:38;1.20;;;0.90;;
8887;SDS011;4480;52.370;9.748;2022-07-11T10:50:10;1.23;;;1.03;;
8887;SDS011;4480;52.370;9.748;2022-07-11T10:52:49;1.50;;;1.30;;
8887;SDS011;4480;52.370;9.748;2022-07-11T10:55:25;7.50;;;1.20;;
8887;SDS011;4480;52.370;9.748;2022-07-11T10:58:02;1.30;;;1.20;;
8887;SDS011;4480;52.370;9.748;2022-07-11T11:00:34;1.60;;;1.17;;
8887;SDS011;4480;52.370;9.748;2022-07-11T11:03:02;3.73;;;1.10;;
8887;SDS011;4480;52.370;9.748;2022-07-11T11:05:41;1.63;;;1.20;;
8887;SDS011;4480;52.370;9.748;2022-07-11T11:14:25;1.37;;;0.90;;
8887;SDS011;4480;52.370;9.748;2022-07-11T11:16:53;1.63;;;1.07;;
8887;SDS011;4480;52.370;9.748;2022-07-11T11:22:20;1.80;;;1.23;;
8887;SDS011;4480;52.370;9.748;2022-07-11T11:24:51;1.00;;;0.67;;
8887;SDS011;4480;52.370;9.748;2022-07-11T11:27:20;1.83;;;0.70;;
8887;SDS011;4480;52.370;9.748;2022-07-11T11:29:49;1.00;;;0.77;;
8887;SDS011;4480;52.370;9.748;2022-07-11T11:32:17;1.10;;;0.90;;
8887;SDS011;4480;52.370;9.748;2022-07-11T11:34:45;3.43;;;0.90;;
8887;SDS011;4480;52.370;9.748;2022-07-11T11:37:14;4.20;;;1.07;;
8887;SDS011;4480;52.370;9.748;2022-07-11T11:39:43;1.27;;;1.00;;
8887;SDS011;4480;52.370;9.748;2022-07-11T11:42:13;1.10;;;0.93;;
8887;SDS011;4480;52.370;9.748;2022-07-11T11:44:51;1.00;;;0.70;;
8887;SDS011;4480;52.370;9.748;2022-07-11T11:47:24;1.20;;;0.80;;
8887;SDS011;4480;52.370;9.748;2022-07-11T11:49:52;1.10;;;0.63;;
8887;SDS011;4480;52.370;9.748;2022-07-11T11:52:19;1.53;;;0.90;;
8887;SDS011;4480;52.370;9.748;2022-07-11T11:54:50;1.20;;;0.70;;
8887;SDS011;4480;52.370;9.748;2022-07-11T11:57:21;2.03;;;0.80;;
8887;SDS011;4480;52.370;9.748;2022-07-11T11:59:50;2.10;;;0.77;;
8887;SDS011;4480;52.370;9.748;2022-07-11T12:02:23;1.00;;;0.77;;
8887;SDS011;4480;52.370;9.748;2022-07-11T12:04:52;0.87;;;0.80;;
8887;SDS011;4480;52.370;9.748;2022-07-11T12:07:23;0.80;;;0.63;;
8887;SDS011;4480;52.370;9.748;2022-07-11T12:09:52;2.03;;;0.80;;
8887;SDS011;4480;52.370;9.748;2022-07-11T12:12:23;0.70;;;0.60;;
8887;SDS011;4480;52.370;9.748;2022-07-11T12:15:23;1.33;;;0.80;;
8887;SDS011;4480;52.370;9.748;2022-07-11T12:17:52;1.27;;;0.90;;
8887;SDS011;4480;52.370;9.748;2022-07-11T12:20:34;1.57;;;0.80;;
8887;SDS011;4480;52.370;9.748;2022-07-11T12:23:03;1.60;;;1.50;;
8887;SDS011;4480;52.370;9.748;2022-07-11T12:25:32;2.53;;;1.50;;
8887;SDS011;4480;52.370;9.748;2022-07-11T12:28:01;2.10;;;1.90;;
8887;SDS011;4480;52.370;9.748;2022-07-11T12:30:30;3.00;;;2.30;;
8887;SDS011;4480;52.370;9.748;2022-07-11T12:33:04;2.20;;;1.90;;
8887;SDS011;4480;52.370;9.748;2022-07-11T12:35:32;2.50;;;2.00;;
8887;SDS011;4480;52.370;9.748;2022-07-11T12:37:59;1.40;;;1.30;;
8887;SDS011;4480;52.370;9.748;2022-07-11T12:40:27;1.43;;;1.33;;
8887;SDS011;4480;52.370;9.748;2022-07-11T12:42:54;1.70;;;1.30;;
8887;SDS011;4480;52.370;9.748;2022-07-11T12:45:23;1.87;;;1.60;;
8887;SDS011;4480;52.370;9.748;2022-07-11T12:47:50;1.87;;;1.40;;
8887;SDS011;4480;52.370;9.748;2022-07-11T12:50:19;1.40;;;1.30;;
8887;SDS011;4480;52.370;9.748;2022-07-11T12:52:49;1.43;;;1.00;;
8887;SDS011;4480;52.370;9.748;2022-07-11T12:55:22;1.67;;;1.37;;
8887;SDS011;4480;52.370;9.748;2022-07-11T12:58:00;1.50;;;1.33;;
8887;SDS011;4480;52.370;9.748;2022-07-11T13:00:33;1.07;;;0.73;;
8887;SDS011;4480;52.370;9.748;2022-07-11T13:03:02;1.20;;;1.10;;
8887;SDS011;4480;52.370;9.748;2022-07-11T13:05:30;3.97;;;1.50;;
8887;SDS011;4480;52.370;9.748;2022-07-11T13:08:20;2.63;;;2.00;;
8887;SDS011;4480;52.370;9.748;2022-07-11T13:11:06;5.23;;;3.10;;
8887;SDS011;4480;52.370;9.748;2022-07-11T13:13:33;3.00;;;2.73;;
8887;SDS011;4480;52.370;9.748;2022-07-11T13:16:02;2.40;;;2.10;;
8887;SDS011;4480;52.370;9.748;2022-07-11T13:18:30;3.10;;;2.37;;
8887;SDS011;4480;52.370;9.748;2022-07-11T13:20:57;2.40;;;2.20;;
8887;SDS011;4480;52.370;9.748;2022-07-11T13:23:25;1.87;;;1.67;;
8887;SDS011;4480;52.370;9.748;2022-07-11T13:25:53;1.80;;;1.70;;
8887;SDS011;4480;52.370;9.748;2022-07-11T13:28:21;3.67;;;3.30;;
8887;SDS011;4480;52.370;9.748;2022-07-11T13:30:49;1.97;;;1.50;;
8887;SDS011;4480;52.370;9.748;2022-07-11T13:33:18;3.00;;;1.30;;
8887;SDS011;4480;52.370;9.748;2022-07-11T13:35:45;1.93;;;1.63;;
8887;SDS011;4480;52.370;9.748;2022-07-11T13:38:13;1.77;;;1.10;;
8887;SDS011;4480;52.370;9.748;2022-07-11T13:40:41;1.30;;;1.10;;
8887;SDS011;4480;52.370;9.748;2022-07-11T13:43:09;1.33;;;0.97;;
8887;SDS011;4480;52.370;9.748;2022-07-11T13:45:37;1.97;;;1.03;;
8887;SDS011;4480;52.370;9.748;2022-07-11T13:48:05;2.30;;;1.20;;
8887;SDS011;4480;52.370;9.748;2022-07-11T13:50:34;2.27;;;0.90;;
8887;SDS011;4480;52.370;9.748;2022-07-11T13:53:01;1.97;;;0.80;;
8887;SDS011;4480;52.370;9.748;2022-07-11T13:55:28;0.93;;;0.83;;
8887;SDS011;4480;52.370;9.748;2022-07-11T13:57:56;1.10;;;0.90;;
8887;SDS011;4480;52.370;9.748;2022-07-11T14:00:24;2.33;;;0.90;;
8887;SDS011;4480;52.370;9.748;2022-07-11T14:02:53;1.53;;;1.40;;
8887;SDS011;4480;52.370;9.748;2022-07-11T14:05:21;3.20;;;2.30;;
8887;SDS011;4480;52.370;9.748;2022-07-11T14:07:49;3.37;;;2.27;;
8887;SDS011;4480;52.370;9.748;2022-07-11T14:10:17;2.60;;;2.40;;
8887;SDS011;4480;52.370;9.748;2022-07-11T14:12:44;3.50;;;3.20;;
8887;SDS011;4480;52.370;9.748;2022-07-11T14:15:11;3.50;;;3.17;;
8887;SDS011;4480;52.370;9.748;2022-07-11T14:17:39;4.47;;;3.40;;
8887;SDS011;4480;52.370;9.748;2022-07-11T14:20:06;4.13;;;3.80;;
8887;SDS011;4480;52.370;9.748;2022-07-11T14:22:34;4.07;;;3.73;;
8887;SDS011;4480;52.370;9.748;2022-07-11T14:25:03;3.90;;;3.60;;
8887;SDS011;4480;52.370;9.748;2022-07-11T14:27:33;2.70;;;2.43;;
8887;SDS011;4480;52.370;9.748;2022-07-11T14:30:02;3.60;;;3.30;;
8887;SDS011;4480;52.370;9.748;2022-07-11T14:32:29;4.23;;;2.80;;
8887;SDS011;4480;52.370;9.748;2022-07-11T14:34:57;2.90;;;2.60;;
8887;SDS011;4480;52.370;9.748;2022-07-11T14:37:25;2.70;;;2.33;;
8887;SDS011;4480;52.370;9.748;2022-07-11T14:39:52;2.97;;;2.70;;
8887;SDS011;4480;52.370;9.748;2022-07-11T14:42:21;3.30;;;2.30;;
8887;SDS011;4480;52.370;9.748;2022-07-11T14:44:48;2.90;;;2.47;;
8887;SDS011;4480;52.370;9.748;2022-07-11T14:47:16;3.00;;;2.80;;
8887;SDS011;4480;52.370;9.748;2022-07-11T14:49:44;3.17;;;2.10;;
8887;SDS011;4480;52.370;9.748;2022-07-11T14:52:11;1.80;;;1.57;;
8887;SDS011;4480;52.370;9.748;2022-07-11T14:54:38;2.00;;;1.90;;
8887;SDS011;4480;52.370;9.748;2022-07-11T14:57:06;3.63;;;2.80;;
8887;SDS011;4480;52.370;9.748;2022-07-11T14:59:34;3.50;;;3.20;;
8887;SDS011;4480;52.370;9.748;2022-07-11T15:02:02;3.70;;;3.40;;
8887;SDS011;4480;52.370;9.748;2022-07-11T15:04:29;3.93;;;3.53;;
8887;SDS011;4480;52.370;9.748;2022-07-11T15:06:57;3.50;;;3.03;;
8887;SDS011;4480;52.370;9.748;2022-07-11T15:09:41;4.23;;;2.57;;
8887;SDS011;4480;52.370;9.748;2022-07-11T15:12:26;3.67;;;3.10;;
8887;SDS011;4480;52.370;9.748;2022-07-11T15:14:55;3.80;;;3.50;;
8887;SDS011;4480;52.370;9.748;2022-07-11T15:17:23;4.07;;;3.50;;
8887;SDS011;4480;52.370;9.748;2022-07-11T15:19:50;3.40;;;3.10;;
8887;SDS011;4480;52.370;9.748;2022-07-11T15:22:17;2.10;;;1.90;;
8887;SDS011;4480;52.370;9.748;2022-07-11T15:24:47;2.90;;;2.70;;
8887;SDS011;4480;52.370;9.748;2022-07-11T15:27:15;2.43;;;2.23;;
8887;SDS011;4480;52.370;9.748;2022-07-11T15:29:42;2.83;;;2.63;;
8887;SDS011;4480;52.370;9.748;2022-07-11T15:32:11;3.00;;;2.80;;
8887;SDS011;4480;52.370;9.748;2022-07-11T15:34:38;2.40;;;2.20;;
8887;SDS011;4480;52.370;9.748;2022-07-11T15:37:05;2.60;;;2.40;;
8887;SDS011;4480;52.370;9.748;2022-07-11T15:39:33;3.03;;;2.73;;
8887;SDS011;4480;52.370;9.748;2022-07-11T15:42:01;2.93;;;2.70;;
8887;SDS011;4480;52.370;9.748;2022-07-11T15:44:28;3.20;;;2.43;;